Time;durP1;ratioP1;P1;durP2;ratioP2;P2;SDS_P1;SDS_P2;PMS_P1;PMS_P2;Temp;Humidity;BMP_temperature;BMP_pressure;BME280_temperature;BME280_humidity;BME280_pressure;Samples;Min_cycle;Max_cycle;Signal;HPM_P1;HPM_P2
2021/04/03 00:02:21;;;;;;;8.63;6.03;;;6.50;99.90;;;;;;5051715;28;20531;-74
2021/04/03 00:04:47;;;;;;;7.93;6.20;;;6.50;99.90;;;;;;5051400;28;20539;-74
2021/04/03 00:07:14;;;;;;;9.83;6.90;;;6.50;99.90;;;;;;5051393;28;20506;-74
2021/04/03 00:09:40;;;;;;;9.63;7.33;;;6.50;99.90;;;;;;5051399;28;20527;-74
2021/04/03 00:12:08;;;;;;;15.80;6.83;;;6.50;99.90;;;;;;5055583;28;20575;-74
2021/04/03 00:14:35;;;;;;;11.50;7.60;;;6.50;99.80;;;;;;5047172;28;20520;-74
2021/04/03 00:17:02;;;;;;;11.53;7.67;;;6.50;99.70;;;;;;5052567;28;20567;-74
2021/04/03 00:19:28;;;;;;;8.23;6.53;;;6.50;99.50;;;;;;5050922;28;20574;-76
2021/04/03 00:21:54;;;;;;;8.57;6.10;;;6.40;99.70;;;;;;5051220;28;20534;-75
2021/04/03 00:24:21;;;;;;;13.13;6.93;;;6.50;99.50;;;;;;5051343;28;20468;-74
2021/04/03 00:26:47;;;;;;;10.07;7.00;;;6.50;99.40;;;;;;5051009;28;20494;-75
2021/04/03 00:29:14;;;;;;;12.20;6.70;;;6.50;99.80;;;;;;5051141;28;20547;-74
2021/04/03 00:31:41;;;;;;;12.20;6.97;;;6.50;99.80;;;;;;5050736;28;20864;-74
2021/04/03 00:34:07;;;;;;;12.50;6.90;;;6.40;99.90;;;;;;5050938;28;21125;-74
2021/04/03 00:36:34;;;;;;;9.60;6.90;;;6.40;99.90;;;;;;5051196;28;20479;-74
2021/04/03 00:39:00;;;;;;;10.57;6.67;;;6.40;99.60;;;;;;5050777;28;21010;-75
2021/04/03 00:41:27;;;;;;;9.97;6.70;;;6.40;99.30;;;;;;5050540;28;20871;-75
2021/04/03 00:43:53;;;;;;;17.33;6.97;;;6.40;99.10;;;;;;5050563;28;20542;-74
2021/04/03 00:46:19;;;;;;;10.53;6.33;;;6.40;99.20;;;;;;5050734;28;20448;-75
2021/04/03 00:48:48;;;;;;;8.87;6.90;;;6.40;99.40;;;;;;5050357;28;20539;-75
2021/04/03 00:51:14;;;;;;;12.50;8.17;;;6.40;98.90;;;;;;5050129;28;20961;-75
2021/04/03 00:53:41;;;;;;;10.47;6.93;;;6.40;99.10;;;;;;5050733;28;20444;-75
2021/04/03 00:56:08;;;;;;;10.80;6.10;;;6.40;98.70;;;;;;5053635;28;20523;-74
2021/04/03 00:58:34;;;;;;;8.03;5.87;;;6.30;99.00;;;;;;5051327;28;20495;-75
2021/04/03 01:01:02;;;;;;;11.00;6.20;;;6.30;99.30;;;;;;5049485;28;20957;-75
2021/04/03 01:03:29;;;;;;;7.17;6.03;;;6.20;98.90;;;;;;5050624;28;20522;-74
2021/04/03 01:05:56;;;;;;;11.87;7.10;;;6.20;99.00;;;;;;5050507;28;20479;-74
2021/04/03 01:08:23;;;;;;;8.93;6.33;;;6.20;99.00;;;;;;5050334;28;20498;-75
2021/04/03 01:10:52;;;;;;;10.37;5.97;;;6.20;98.70;;;;;;5050100;28;20480;-75
2021/04/03 01:13:28;;;;;;;9.93;6.70;;;6.20;98.70;;;;;;5050264;28;20452;-74
2021/04/03 01:16:04;;;;;;;11.30;6.00;;;6.20;98.80;;;;;;5050257;28;20832;-74
2021/04/03 01:18:41;;;;;;;9.60;5.87;;;6.20;98.70;;;;;;5050380;28;20463;-75
2021/04/03 01:21:17;;;;;;;8.03;6.67;;;6.20;98.50;;;;;;5050000;28;20439;-75
2021/04/03 01:24:23;;;;;;;8.63;6.10;;;6.10;98.30;;;;;;5050522;28;20534;-74
2021/04/03 01:27:15;;;;;;;10.10;6.60;;;6.10;98.30;;;;;;5050317;28;20450;-74
2021/04/03 01:30:03;;;;;;;9.67;6.40;;;6.10;98.40;;;;;;5046622;28;20955;-75
2021/04/03 01:32:51;;;;;;;8.97;6.00;;;6.00;98.40;;;;;;5049748;28;20436;-74
2021/04/03 01:35:23;;;;;;;14.17;6.57;;;6.00;98.50;;;;;;5056177;28;20526;-74
2021/04/03 01:37:55;;;;;;;9.50;6.80;;;5.90;98.70;;;;;;5050833;28;20479;-75
2021/04/03 01:40:24;;;;;;;11.63;5.77;;;5.80;98.80;;;;;;5069759;28;20570;-75
2021/04/03 01:42:53;;;;;;;10.00;6.00;;;5.70;99.00;;;;;;5069727;28;20505;-74
2021/04/03 01:45:22;;;;;;;12.53;5.93;;;5.60;99.40;;;;;;5070142;28;20518;-75
2021/04/03 01:47:50;;;;;;;9.30;6.83;;;5.60;99.30;;;;;;5069983;28;20498;-73
2021/04/03 01:50:19;;;;;;;13.03;6.20;;;5.50;99.40;;;;;;5069714;28;20447;-74
2021/04/03 01:52:48;;;;;;;10.00;6.37;;;5.50;99.90;;;;;;5070037;28;20538;-74
2021/04/03 01:55:15;;;;;;;11.20;7.00;;;5.40;99.90;;;;;;5070066;28;20451;-74
2021/04/03 01:57:46;;;;;;;7.83;5.87;;;5.40;99.90;;;;;;5069713;28;20577;-74
2021/04/03 02:00:15;;;;;;;10.23;5.90;;;5.30;99.90;;;;;;5069877;28;20570;-74
2021/04/03 02:02:43;;;;;;;10.80;6.63;;;5.30;99.90;;;;;;5064164;28;20573;-74
2021/04/03 02:05:12;;;;;;;10.00;6.27;;;5.30;99.90;;;;;;5059798;28;20531;-74
2021/04/03 02:07:41;;;;;;;10.70;7.93;;;5.20;99.90;;;;;;5069682;28;20523;-74
2021/04/03 02:10:09;;;;;;;12.87;7.50;;;5.20;99.90;;;;;;5069628;28;20518;-75
2021/04/03 02:12:37;;;;;;;8.90;5.60;;;5.20;99.90;;;;;;5069857;28;20597;-74
2021/04/03 02:15:06;;;;;;;11.50;6.73;;;5.20;99.90;;;;;;5073284;28;20469;-74
2021/04/03 02:17:35;;;;;;;9.97;7.17;;;5.20;99.90;;;;;;5073494;28;20498;-74
2021/04/03 02:20:06;;;;;;;11.03;7.13;;;5.20;99.90;;;;;;5073276;28;20511;-74
2021/04/03 02:22:33;;;;;;;8.63;5.43;;;5.10;99.90;;;;;;5073802;28;20506;-75
2021/04/03 02:25:00;;;;;;;8.63;6.47;;;5.10;99.90;;;;;;5073418;28;20533;-74
2021/04/03 02:27:28;;;;;;;14.10;6.80;;;5.10;99.90;;;;;;5073400;28;20548;-74
2021/04/03 02:29:54;;;;;;;10.00;6.20;;;5.20;99.90;;;;;;5073235;28;20453;-74
2021/04/03 02:32:21;;;;;;;9.63;6.00;;;5.20;99.90;;;;;;5073472;28;20475;-74
2021/04/03 02:34:47;;;;;;;9.77;6.07;;;5.20;99.90;;;;;;5073316;28;20542;-74
2021/04/03 02:37:14;;;;;;;10.10;6.30;;;5.30;99.90;;;;;;5073596;28;20533;-73
2021/04/03 02:39:42;;;;;;;9.20;6.33;;;5.30;99.90;;;;;;5072962;28;20563;-74
2021/04/03 02:42:13;;;;;;;9.27;5.93;;;5.30;99.90;;;;;;5073460;28;20580;-74
2021/04/03 02:44:45;;;;;;;13.60;6.67;;;5.30;99.90;;;;;;5073438;28;20530;-73
2021/04/03 02:47:15;;;;;;;9.80;5.93;;;5.30;99.90;;;;;;5073135;28;20526;-74
2021/04/03 02:49:49;;;;;;;13.47;6.40;;;5.30;99.90;;;;;;5073250;28;20929;-74
2021/04/03 02:52:17;;;;;;;10.37;6.13;;;5.20;99.90;;;;;;5072903;28;20457;-74
2021/04/03 02:54:44;;;;;;;11.93;6.60;;;5.10;99.90;;;;;;5073058;28;20541;-74
2021/04/03 02:57:14;;;;;;;9.03;5.80;;;5.00;99.90;;;;;;5072644;28;21012;-74
2021/04/03 02:59:46;;;;;;;7.27;5.13;;;5.00;99.90;;;;;;5072491;28;20623;-75
2021/04/03 03:02:18;;;;;;;7.20;4.90;;;5.00;99.90;;;;;;5068323;28;20923;-74
2021/04/03 03:04:46;;;;;;;8.17;4.47;;;4.90;99.90;;;;;;5061584;28;20446;-74
2021/04/03 03:07:13;;;;;;;7.40;4.87;;;4.80;99.90;;;;;;5052780;28;20487;-74
2021/04/03 03:09:42;;;;;;;14.20;5.80;;;4.80;99.90;;;;;;5052651;28;20531;-74
2021/04/03 03:12:12;;;;;;;8.93;4.70;;;4.80;99.90;;;;;;5052448;28;20542;-75
2021/04/03 03:14:41;;;;;;;7.27;5.00;;;4.80;99.90;;;;;;5052829;28;20440;-75
2021/04/03 03:17:09;;;;;;;10.65;5.90;;;4.70;99.90;;;;;;5051518;28;20530;-74
2021/04/03 03:19:37;;;;;;;7.40;6.03;;;4.70;99.90;;;;;;5052631;28;20245;-74
2021/04/03 03:22:04;;;;;;;9.73;5.33;;;4.60;99.90;;;;;;5052761;28;20527;-74
2021/04/03 03:24:31;;;;;;;8.33;5.50;;;4.60;99.90;;;;;;5052165;28;20570;-75
2021/04/03 03:27:00;;;;;;;8.23;5.53;;;4.60;99.90;;;;;;5052317;28;20490;-75
2021/04/03 03:29:27;;;;;;;6.70;4.93;;;4.50;99.90;;;;;;5052397;28;20464;-75
2021/04/03 03:31:54;;;;;;;9.77;4.90;;;4.40;99.90;;;;;;5052594;28;20894;-74
2021/04/03 03:34:21;;;;;;;8.53;6.50;;;4.40;99.90;;;;;;5052878;28;20452;-75
2021/04/03 03:36:48;;;;;;;8.30;6.33;;;4.40;99.90;;;;;;5052415;28;20451;-74
2021/04/03 03:39:15;;;;;;;6.07;5.30;;;4.40;99.90;;;;;;5052025;28;20494;-75
2021/04/03 03:41:43;;;;;;;8.30;5.77;;;4.30;99.90;;;;;;5051942;28;20536;-74
2021/04/03 03:44:11;;;;;;;9.17;5.57;;;4.20;99.90;;;;;;5052343;28;20531;-74
2021/04/03 03:46:38;;;;;;;8.80;6.60;;;4.00;99.90;;;;;;5052225;28;20531;-74
2021/04/03 03:49:04;;;;;;;10.07;6.80;;;4.00;99.90;;;;;;5051927;28;20547;-74
2021/04/03 03:51:31;;;;;;;8.17;5.50;;;4.00;99.90;;;;;;5051613;28;20544;-75
2021/04/03 03:53:58;;;;;;;8.87;5.50;;;4.10;99.90;;;;;;5051604;28;20454;-74
2021/04/03 03:56:24;;;;;;;7.07;4.80;;;4.20;99.90;;;;;;5051825;28;20523;-74
2021/04/03 03:58:51;;;;;;;7.50;5.60;;;4.20;99.90;;;;;;5051800;28;20502;-74
2021/04/03 04:01:18;;;;;;;8.02;5.80;;;4.20;99.90;;;;;;5050430;28;20452;-74
2021/04/03 04:03:45;;;;;;;11.30;5.77;;;4.30;99.90;;;;;;5051585;28;20329;-74
2021/04/03 04:06:11;;;;;;;6.97;4.97;;;4.40;99.90;;;;;;5051395;28;20526;-74
2021/04/03 04:08:38;;;;;;;10.23;5.37;;;4.50;99.90;;;;;;5051286;28;20546;-74
2021/04/03 04:11:04;;;;;;;7.97;5.37;;;4.60;99.90;;;;;;5050968;28;20484;-75
2021/04/03 04:13:30;;;;;;;10.30;5.23;;;4.70;99.90;;;;;;5051244;28;20464;-74
2021/04/03 04:15:57;;;;;;;9.43;5.77;;;4.70;99.90;;;;;;5051156;28;20548;-74
2021/04/03 04:18:24;;;;;;;8.40;5.20;;;4.80;99.90;;;;;;5051066;28;20507;-74
2021/04/03 04:20:50;;;;;;;8.53;4.40;;;4.80;99.90;;;;;;5050864;28;20511;-74
2021/04/03 04:23:17;;;;;;;8.37;5.13;;;4.90;99.90;;;;;;5051107;28;20459;-74
2021/04/03 04:25:43;;;;;;;6.50;4.93;;;4.90;99.90;;;;;;5051328;28;20536;-74
2021/04/03 04:28:10;;;;;;;7.90;5.33;;;4.90;99.90;;;;;;5050778;28;20551;-74
2021/04/03 04:30:36;;;;;;;8.00;4.90;;;5.00;99.90;;;;;;5050730;28;20535;-75
2021/04/03 04:33:03;;;;;;;6.50;4.80;;;5.10;99.90;;;;;;5050934;28;20452;-75
2021/04/03 04:35:31;;;;;;;8.47;5.40;;;5.10;99.90;;;;;;5050427;28;20527;-75
2021/04/03 04:37:57;;;;;;;7.40;4.57;;;5.10;99.90;;;;;;5050101;28;21025;-74
2021/04/03 04:40:24;;;;;;;10.43;5.53;;;5.10;99.90;;;;;;5050367;28;20526;-74
2021/04/03 04:42:50;;;;;;;8.27;6.10;;;5.00;99.90;;;;;;5050883;28;20551;-74
2021/04/03 04:45:17;;;;;;;5.80;5.00;;;5.00;99.90;;;;;;5050585;28;20455;-75
2021/04/03 04:47:43;;;;;;;11.90;5.23;;;4.90;99.90;;;;;;5050718;28;20555;-75
2021/04/03 04:50:11;;;;;;;10.70;5.67;;;5.00;99.90;;;;;;5050275;28;20582;-74
2021/04/03 04:52:39;;;;;;;6.87;4.53;;;5.00;99.90;;;;;;5050642;28;20534;-74
2021/04/03 04:55:06;;;;;;;5.13;4.57;;;5.10;99.90;;;;;;5050878;28;20486;-74
2021/04/03 04:57:33;;;;;;;7.00;5.23;;;5.20;99.90;;;;;;5051116;28;20505;-74
2021/04/03 04:59:59;;;;;;;7.40;5.30;;;5.20;99.90;;;;;;5050804;28;20479;-74
2021/04/03 05:02:25;;;;;;;8.30;5.47;;;5.20;99.90;;;;;;5059949;28;20563;-75
2021/04/03 05:04:52;;;;;;;7.75;5.78;;;5.20;99.90;;;;;;5067920;28;20529;-73
2021/04/03 05:07:18;;;;;;;10.60;5.50;;;5.20;99.90;;;;;;5070369;28;20303;-74
2021/04/03 05:09:45;;;;;;;10.03;4.97;;;5.20;99.90;;;;;;5070378;28;20451;-74
2021/04/03 05:12:12;;;;;;;7.37;5.30;;;5.30;99.90;;;;;;5070400;28;20550;-74
2021/04/03 05:14:38;;;;;;;8.60;5.27;;;5.40;99.90;;;;;;5070464;28;20474;-74
2021/04/03 05:17:05;;;;;;;6.80;4.90;;;5.40;99.90;;;;;;5070289;28;20481;-74
2021/04/03 05:19:32;;;;;;;8.17;5.50;;;5.50;99.90;;;;;;5070001;28;20485;-73
2021/04/03 05:21:58;;;;;;;8.20;6.00;;;5.50;99.90;;;;;;5069072;28;20882;-74
2021/04/03 05:24:24;;;;;;;6.83;4.50;;;5.60;99.90;;;;;;5055495;28;20475;-74
2021/04/03 05:26:52;;;;;;;8.93;4.80;;;5.60;99.90;;;;;;5069824;28;20540;-74
2021/04/03 05:29:18;;;;;;;8.43;5.90;;;5.70;99.90;;;;;;5058818;28;20479;-74
2021/04/03 05:31:44;;;;;;;12.23;5.90;;;5.70;99.90;;;;;;5053384;28;20452;-74
2021/04/03 05:34:11;;;;;;;9.63;5.00;;;5.70;99.90;;;;;;5058873;28;20447;-74
2021/04/03 05:36:37;;;;;;;10.20;5.50;;;5.70;99.90;;;;;;5054249;28;20539;-75
2021/04/03 05:39:06;;;;;;;7.30;5.30;;;5.80;99.90;;;;;;5057354;28;20499;-74
2021/04/03 05:41:32;;;;;;;8.13;5.00;;;5.80;99.90;;;;;;5049727;28;20450;-73
2021/04/03 05:44:02;;;;;;;6.67;5.17;;;5.90;99.90;;;;;;5049791;28;20537;-74
2021/04/03 05:46:29;;;;;;;6.13;4.70;;;5.90;99.90;;;;;;5058481;28;20605;-74
2021/04/03 05:48:55;;;;;;;8.53;4.67;;;6.00;99.90;;;;;;5056635;28;20541;-74
2021/04/03 05:51:22;;;;;;;7.57;4.73;;;6.00;99.90;;;;;;5072334;28;20739;-73
2021/04/03 05:53:50;;;;;;;7.47;4.57;;;6.00;99.90;;;;;;5074055;28;20525;-74
2021/04/03 05:56:18;;;;;;;8.23;5.00;;;6.10;99.90;;;;;;5073764;28;20530;-74
2021/04/03 05:58:45;;;;;;;6.70;4.10;;;6.10;99.90;;;;;;5073500;28;20550;-74
2021/04/03 06:01:12;;;;;;;9.20;3.87;;;6.10;99.90;;;;;;5066382;28;20482;-74
2021/04/03 06:03:38;;;;;;;6.57;4.60;;;6.00;99.90;;;;;;5055490;28;20477;-74
2021/04/03 06:06:05;;;;;;;8.73;4.77;;;5.90;99.90;;;;;;5060809;28;20517;-74
2021/04/03 06:08:33;;;;;;;10.80;5.07;;;5.80;99.90;;;;;;5062900;28;20473;-74
2021/04/03 06:11:14;;;;;;;5.87;4.50;;;5.80;99.90;;;;;;5058794;28;20478;-74
2021/04/03 06:13:41;;;;;;;8.67;3.80;;;5.80;99.90;;;;;;5053090;28;20466;-74
2021/04/03 06:16:26;;;;;;;9.33;3.90;;;5.80;99.90;;;;;;5061218;28;20523;-74
2021/04/03 06:19:06;;;;;;;8.43;4.10;;;5.80;99.90;;;;;;5033227;28;20476;-74
2021/04/03 06:21:33;;;;;;;6.83;4.30;;;5.80;99.90;;;;;;5044540;28;20489;-74
2021/04/03 06:24:00;;;;;;;8.30;4.50;;;5.80;99.90;;;;;;5056791;28;20440;-74
2021/04/03 06:26:26;;;;;;;7.07;4.53;;;5.90;99.90;;;;;;5051436;28;20568;-77
2021/04/03 06:28:52;;;;;;;4.97;4.03;;;5.90;99.90;;;;;;5058627;28;20898;-72
2021/04/03 06:31:20;;;;;;;5.23;3.90;;;5.90;99.90;;;;;;5056776;28;20452;-73
2021/04/03 06:33:48;;;;;;;7.03;4.37;;;5.90;99.90;;;;;;5061214;28;20459;-73
2021/04/03 06:36:15;;;;;;;9.07;4.63;;;5.90;99.90;;;;;;5064644;28;20431;-74
2021/04/03 06:38:43;;;;;;;8.57;4.97;;;6.00;99.90;;;;;;5058244;28;20471;-73
2021/04/03 06:41:17;;;;;;;4.97;4.30;;;6.10;99.90;;;;;;5063498;28;20561;-73
2021/04/03 06:43:44;;;;;;;7.20;4.50;;;6.10;99.90;;;;;;5065774;28;20478;-73
2021/04/03 06:46:26;;;;;;;6.27;4.23;;;6.10;99.90;;;;;;5063747;28;20471;-73
2021/04/03 06:48:54;;;;;;;8.67;4.13;;;6.20;99.90;;;;;;5064906;28;20474;-73
2021/04/03 06:51:21;;;;;;;8.40;4.67;;;6.20;99.90;;;;;;5063115;28;20432;-74
2021/04/03 06:53:49;;;;;;;9.77;4.03;;;6.30;99.90;;;;;;5060371;28;20970;-76
2021/04/03 06:56:20;;;;;;;10.33;5.00;;;6.30;99.90;;;;;;5059346;28;20455;-76
2021/04/03 06:58:48;;;;;;;5.10;4.13;;;6.40;99.90;;;;;;5064506;28;20542;-74
2021/04/03 07:01:16;;;;;;;5.50;4.10;;;6.50;99.90;;;;;;5070237;28;20640;-74
2021/04/03 07:03:48;;;;;;;7.60;4.20;;;6.60;99.90;;;;;;5059158;28;20957;-75
2021/04/03 07:06:16;;;;;;;9.23;5.27;;;6.60;99.90;;;;;;5056133;28;20563;-75
2021/04/03 07:08:43;;;;;;;5.40;4.27;;;6.70;99.90;;;;;;5052170;28;20508;-74
2021/04/03 07:11:10;;;;;;;7.37;4.53;;;6.70;99.90;;;;;;5052017;28;20519;-75
2021/04/03 07:13:38;;;;;;;5.03;3.70;;;6.60;99.90;;;;;;5051805;28;20547;-75
2021/04/03 07:16:05;;;;;;;7.27;3.83;;;6.60;99.90;;;;;;5059057;28;20538;-75
2021/04/03 07:18:33;;;;;;;9.20;4.73;;;6.60;99.90;;;;;;5071372;28;20902;-75
2021/04/03 07:21:01;;;;;;;8.70;3.73;;;6.70;99.90;;;;;;5071791;28;20486;-75
2021/04/03 07:23:29;;;;;;;7.17;3.87;;;6.70;99.90;;;;;;5072079;28;20860;-74
2021/04/03 07:25:59;;;;;;;8.13;4.20;;;6.70;99.90;;;;;;5071954;28;20453;-75
2021/04/03 07:28:36;;;;;;;7.40;4.50;;;6.90;99.90;;;;;;5071699;28;20474;-75
2021/04/03 07:31:02;;;;;;;5.50;4.43;;;7.10;99.90;;;;;;5071927;28;20449;-74
2021/04/03 07:33:29;;;;;;;8.07;4.57;;;7.40;99.90;;;;;;5071927;28;20455;-76
2021/04/03 07:35:56;;;;;;;11.27;5.10;;;7.70;99.90;;;;;;5063057;28;20535;-74
2021/04/03 07:38:24;;;;;;;5.40;3.67;;;7.60;99.40;;;;;;5051183;28;21130;-72
2021/04/03 07:40:53;;;;;;;5.50;3.23;;;7.60;99.70;;;;;;5048325;28;20559;-72
2021/04/03 07:43:40;;;;;;;4.73;3.47;;;7.60;99.40;;;;;;5051567;28;20444;-73
2021/04/03 07:46:12;;;;;;;5.17;3.87;;;7.90;99.50;;;;;;5051831;28;20459;-72
2021/04/03 07:48:50;;;;;;;4.73;2.70;;;8.20;98.80;;;;;;5051531;28;20557;-72
2021/04/03 07:51:36;;;;;;;7.33;3.30;;;8.10;97.90;;;;;;5051594;28;20452;-72
2021/04/03 07:54:04;;;;;;;7.60;2.30;;;8.20;97.50;;;;;;5051605;28;20490;-73
2021/04/03 07:56:53;;;;;;;7.37;3.43;;;7.80;96.80;;;;;;5051833;28;20533;-72
2021/04/03 07:59:51;;;;;;;7.67;2.93;;;7.40;98.00;;;;;;5051580;28;20503;-74
2021/04/03 08:02:20;;;;;;;6.93;3.10;;;7.20;98.50;;;;;;5059566;28;20474;-74
2021/04/03 08:04:47;;;;;;;6.77;3.53;;;7.10;98.70;;;;;;5062648;28;20544;-72
2021/04/03 08:07:13;;;;;;;7.40;3.10;;;7.00;98.50;;;;;;5070827;28;20464;-75
2021/04/03 08:09:40;;;;;;;7.53;3.60;;;7.00;99.00;;;;;;5050999;28;20535;-71
2021/04/03 08:12:08;;;;;;;6.37;2.70;;;7.10;98.00;;;;;;5060443;28;21027;-70
2021/04/03 08:14:36;;;;;;;9.07;3.13;;;7.00;98.10;;;;;;5047322;28;20540;-72
2021/04/03 08:17:05;;;;;;;4.30;2.50;;;7.10;99.30;;;;;;5054405;28;20455;-73
2021/04/03 08:19:34;;;;;;;5.57;2.87;;;7.30;98.10;;;;;;5053629;28;20966;-73
2021/04/03 08:24:43;;;;;;;7.83;2.90;;;7.40;97.20;;;;;;5198387;22;20556;-74
2021/04/03 08:27:10;;;;;;;5.63;2.67;;;7.30;97.50;;;;;;5071639;28;20448;-74
2021/04/03 08:29:37;;;;;;;3.97;2.73;;;7.30;97.60;;;;;;5047564;28;20571;-73
2021/04/03 08:32:05;;;;;;;7.30;3.20;;;7.40;98.30;;;;;;5056753;28;20447;-74
2021/04/03 08:34:32;;;;;;;6.13;3.30;;;7.60;97.10;;;;;;5058804;28;20522;-73
2021/04/03 08:36:59;;;;;;;4.73;2.30;;;7.70;96.70;;;;;;5067182;28;20478;-72
2021/04/03 08:39:26;;;;;;;6.00;2.83;;;7.80;96.70;;;;;;5071198;28;20467;-72
2021/04/03 08:41:54;;;;;;;8.37;3.67;;;7.50;96.10;;;;;;5071390;28;20530;-74
2021/04/03 08:44:24;;;;;;;7.03;3.47;;;7.70;98.20;;;;;;5070921;28;20495;-74
2021/04/03 08:46:53;;;;;;;4.77;2.53;;;7.90;97.50;;;;;;5062964;28;20485;-74
2021/04/03 08:49:24;;;;;;;8.87;3.40;;;7.90;96.40;;;;;;5067592;28;20522;-74
2021/04/03 08:51:50;;;;;;;4.90;3.40;;;7.90;96.70;;;;;;5064413;28;20527;-73
2021/04/03 08:54:17;;;;;;;7.10;4.30;;;8.10;96.60;;;;;;5056177;28;20571;-74
2021/04/03 08:56:44;;;;;;;11.20;3.57;;;8.20;96.00;;;;;;5054646;28;20528;-74
2021/04/03 08:59:13;;;;;;;8.30;3.53;;;8.30;96.20;;;;;;5054587;28;20456;-74
2021/04/03 09:01:44;;;;;;;7.13;4.10;;;8.10;95.80;;;;;;5066534;28;20475;-72
2021/04/03 09:04:11;;;;;;;7.40;3.60;;;8.20;95.80;;;;;;5052662;28;20463;-72
2021/04/03 09:06:50;;;;;;;5.63;3.60;;;8.00;95.80;;;;;;5054350;28;21076;-73
2021/04/03 09:09:21;;;;;;;8.07;4.10;;;7.90;96.40;;;;;;5067758;28;20452;-73
2021/04/03 09:11:55;;;;;;;9.43;4.00;;;7.80;95.30;;;;;;5060981;28;20451;-71
2021/04/03 09:14:27;;;;;;;5.30;3.40;;;7.80;95.60;;;;;;5062803;28;20966;-72
2021/04/03 09:16:55;;;;;;;6.80;3.70;;;7.80;96.00;;;;;;5053635;28;20519;-71
2021/04/03 09:19:26;;;;;;;5.20;3.30;;;7.70;95.60;;;;;;5063503;28;21003;-71
2021/04/03 09:21:52;;;;;;;5.07;3.70;;;8.00;96.10;;;;;;5070138;28;20566;-72
2021/04/03 09:24:38;;;;;;;4.40;2.90;;;8.00;95.40;;;;;;5062802;28;20567;-71
2021/04/03 09:27:10;;;;;;;5.07;2.80;;;8.20;95.60;;;;;;5055327;28;20444;-71
2021/04/03 09:29:36;;;;;;;5.90;3.60;;;8.60;95.00;;;;;;5048071;28;21014;-71
2021/04/03 09:32:06;;;;;;;4.50;2.67;;;9.00;94.60;;;;;;5042574;28;20532;-71
2021/04/03 09:34:34;;;;;;;5.20;2.70;;;9.40;93.70;;;;;;5044501;28;20574;-71
2021/04/03 09:37:13;;;;;;;6.70;3.17;;;9.70;92.70;;;;;;5043503;28;20535;-71
2021/04/03 09:39:44;;;;;;;5.60;2.57;;;9.30;91.30;;;;;;5054579;28;20538;-71
2021/04/03 09:42:12;;;;;;;6.80;3.30;;;9.20;91.80;;;;;;5050379;28;20523;-70
2021/04/03 09:44:38;;;;;;;7.57;3.00;;;9.40;91.70;;;;;;5047094;28;20460;-71
2021/04/03 09:47:06;;;;;;;5.17;3.20;;;9.60;91.10;;;;;;5045173;28;20511;-73
2021/04/03 09:49:32;;;;;;;7.00;3.00;;;9.80;91.10;;;;;;5049447;28;20472;-71
2021/04/03 09:51:59;;;;;;;6.10;2.93;;;10.20;91.00;;;;;;5048751;28;20519;-73
2021/04/03 09:54:26;;;;;;;8.03;2.67;;;10.60;90.90;;;;;;5046978;28;20578;-71
2021/04/03 09:56:52;;;;;;;6.00;2.90;;;10.50;89.00;;;;;;5059104;28;20523;-71
2021/04/03 09:59:19;;;;;;;8.33;3.90;;;10.10;88.40;;;;;;5045534;28;20534;-69
2021/04/03 10:01:45;;;;;;;8.03;3.80;;;10.20;89.20;;;;;;5051768;28;20515;-70
2021/04/03 10:04:13;;;;;;;5.17;3.27;;;10.50;89.20;;;;;;5051261;28;21216;-70
2021/04/03 10:06:39;;;;;;;4.73;3.30;;;10.50;88.10;;;;;;5048186;28;20535;-70
2021/04/03 10:09:06;;;;;;;8.40;2.93;;;10.60;87.90;;;;;;5047103;28;20495;-71
2021/04/03 10:11:33;;;;;;;8.10;3.23;;;10.90;90.10;;;;;;5056202;28;20531;-71
2021/04/03 10:14:00;;;;;;;7.47;3.13;;;11.00;85.20;;;;;;5046909;28;20499;-70
2021/04/03 10:16:26;;;;;;;6.03;3.00;;;11.40;86.10;;;;;;5048952;28;20509;-71
2021/04/03 10:18:53;;;;;;;4.53;2.57;;;12.10;88.10;;;;;;5057123;28;20530;-71
2021/04/03 10:21:20;;;;;;;8.27;3.13;;;12.30;83.10;;;;;;5068064;28;20513;-70
2021/04/03 10:23:47;;;;;;;4.50;2.67;;;12.10;82.40;;;;;;5065985;28;20467;-69
2021/04/03 10:26:14;;;;;;;2.80;2.33;;;11.70;81.50;;;;;;5058565;28;20606;-70
2021/04/03 10:28:40;;;;;;;6.00;3.10;;;10.80;80.40;;;;;;5048176;28;20519;-70
2021/04/03 10:31:06;;;;;;;7.83;3.03;;;10.40;82.50;;;;;;5047856;28;20284;-71
2021/04/03 10:33:33;;;;;;;5.37;2.37;;;10.70;87.70;;;;;;5052124;28;20467;-73
2021/04/03 10:35:59;;;;;;;4.83;2.80;;;11.20;84.40;;;;;;5070687;28;20442;-71
2021/04/03 10:38:27;;;;;;;6.47;3.00;;;11.60;82.90;;;;;;5072172;28;20534;-70
2021/04/03 10:40:53;;;;;;;6.10;3.20;;;11.60;82.30;;;;;;5053965;28;20472;-73
2021/04/03 10:43:20;;;;;;;7.53;2.90;;;12.00;83.30;;;;;;5052196;28;20999;-71
2021/04/03 10:45:46;;;;;;;4.50;2.90;;;12.40;83.70;;;;;;5053095;28;21235;-70
2021/04/03 10:48:13;;;;;;;13.00;3.43;;;12.60;80.80;;;;;;5053812;28;20523;-70
2021/04/03 10:50:40;;;;;;;7.23;3.90;;;12.50;81.40;;;;;;5052834;28;20527;-70
2021/04/03 10:53:07;;;;;;;5.57;3.27;;;11.90;82.80;;;;;;5054825;28;20491;-70
2021/04/03 10:55:34;;;;;;;7.73;4.10;;;11.30;81.30;;;;;;5056979;28;20962;-71
2021/04/03 10:58:01;;;;;;;5.60;3.00;;;10.50;82.90;;;;;;5051980;28;20444;-72
2021/04/03 11:00:28;;;;;;;8.30;3.60;;;10.20;85.40;;;;;;5049245;28;20482;-71
2021/04/03 11:02:55;;;;;;;6.13;3.57;;;10.70;87.50;;;;;;5052110;28;21151;-71
2021/04/03 11:05:22;;;;;;;7.13;3.27;;;11.20;83.50;;;;;;5052839;28;20459;-71
2021/04/03 11:07:49;;;;;;;11.50;4.03;;;11.60;80.90;;;;;;5051122;28;20855;-70
2021/04/03 11:10:16;;;;;;;9.53;3.73;;;11.90;81.20;;;;;;5049952;28;20657;-71
2021/04/03 11:12:43;;;;;;;6.40;3.17;;;12.80;78.60;;;;;;5051707;28;20531;-72
2021/04/03 11:15:11;;;;;;;4.23;2.90;;;13.60;76.90;;;;;;5057993;28;20888;-71
2021/04/03 11:17:37;;;;;;;7.00;2.77;;;12.70;75.30;;;;;;5055649;28;20452;-70
2021/04/03 11:20:06;;;;;;;3.77;3.00;;;12.10;77.10;;;;;;5050481;28;21030;-71
2021/04/03 11:22:33;;;;;;;4.63;2.97;;;11.90;76.80;;;;;;5048858;28;20479;-70
2021/04/03 11:25:00;;;;;;;5.83;3.60;;;12.10;77.80;;;;;;5057765;28;20454;-70
2021/04/03 11:27:27;;;;;;;3.50;2.60;;;12.70;77.50;;;;;;5056402;28;20443;-71
2021/04/03 11:29:54;;;;;;;7.57;2.80;;;13.80;75.70;;;;;;5052854;28;20452;-71
2021/04/03 11:32:20;;;;;;;6.77;3.30;;;14.10;73.10;;;;;;5058796;28;20467;-70
2021/04/03 11:34:47;;;;;;;7.03;3.50;;;13.70;69.40;;;;;;5055256;28;20559;-70
2021/04/03 11:37:15;;;;;;;8.00;3.43;;;12.90;70.40;;;;;;5057977;28;20446;-70
2021/04/03 11:39:44;;;;;;;7.13;4.33;;;12.10;74.30;;;;;;5054789;28;20506;-69
2021/04/03 11:42:10;;;;;;;5.60;3.00;;;11.70;76.90;;;;;;5055104;28;21110;-70
2021/04/03 11:44:36;;;;;;;4.40;2.70;;;11.20;75.50;;;;;;5052056;28;20630;-69
2021/04/03 11:47:05;;;;;;;9.50;3.20;;;11.00;78.20;;;;;;5050432;28;20469;-69
2021/04/03 11:49:31;;;;;;;3.80;2.90;;;10.80;77.10;;;;;;5050341;28;20454;-71
2021/04/03 11:51:58;;;;;;;4.70;2.50;;;10.70;80.60;;;;;;5051535;28;20895;-72
2021/04/03 11:54:24;;;;;;;5.83;2.97;;;11.10;82.40;;;;;;5055949;28;20542;-71
2021/04/03 11:56:50;;;;;;;6.40;3.50;;;11.80;82.30;;;;;;5068700;28;20590;-72
2021/04/03 11:59:17;;;;;;;3.67;2.70;;;13.90;79.10;;;;;;5067846;28;20451;-73
2021/04/03 12:01:43;;;;;;;4.40;2.90;;;15.90;70.50;;;;;;5070532;28;20586;-70
2021/04/03 12:04:11;;;;;;;4.00;2.40;;;17.60;64.90;;;;;;5069592;28;20546;-71
2021/04/03 12:06:37;;;;;;;4.83;2.67;;;18.10;57.90;;;;;;5065187;28;20460;-74
2021/04/03 12:09:04;;;;;;;3.43;2.53;;;17.40;56.80;;;;;;5052138;28;20936;-70
2021/04/03 12:11:30;;;;;;;4.77;2.40;;;15.60;57.30;;;;;;5050581;28;20531;-69
2021/04/03 12:13:57;;;;;;;7.10;2.60;;;14.50;60.40;;;;;;5057429;28;20976;-70
2021/04/03 12:16:23;;;;;;;4.20;3.47;;;14.10;62.80;;;;;;5049946;28;20467;-70
2021/04/03 12:18:50;;;;;;;3.53;2.20;;;14.00;66.30;;;;;;5050336;28;20563;-70
2021/04/03 12:21:18;;;;;;;3.30;2.20;;;13.40;62.60;;;;;;5049685;28;20837;-69
2021/04/03 12:23:44;;;;;;;5.77;2.27;;;13.00;63.80;;;;;;5055618;28;20561;-70
2021/04/03 12:26:11;;;;;;;4.50;2.33;;;12.30;64.50;;;;;;5058272;28;20464;-73
2021/04/03 12:28:37;;;;;;;3.80;2.20;;;12.20;65.90;;;;;;5057602;28;20531;-70
2021/04/03 12:31:03;;;;;;;4.40;2.20;;;13.20;67.70;;;;;;5049506;28;20471;-70
2021/04/03 12:33:30;;;;;;;4.13;2.50;;;14.70;62.20;;;;;;5049046;28;20467;-71
2021/04/03 12:35:56;;;;;;;3.80;2.60;;;16.20;61.10;;;;;;5048186;28;21227;-70
2021/04/03 12:38:24;;;;;;;3.10;1.90;;;18.30;57.00;;;;;;5049523;28;20484;-71
2021/04/03 12:40:50;;;;;;;2.90;2.00;;;19.20;53.60;;;;;;5050567;28;20559;-70
2021/04/03 12:43:16;;;;;;;4.50;2.10;;;18.30;53.50;;;;;;5054898;28;21010;-73
2021/04/03 12:45:43;;;;;;;3.70;2.00;;;16.80;52.90;;;;;;5053977;28;20448;-70
2021/04/03 12:48:09;;;;;;;8.45;2.70;;;15.50;52.40;;;;;;5047154;28;20523;-72
2021/04/03 12:50:36;;;;;;;4.27;2.97;;;14.10;54.00;;;;;;5053700;28;20231;-73
2021/04/03 12:53:03;;;;;;;6.07;2.40;;;13.50;57.10;;;;;;5054782;28;20543;-70
2021/04/03 12:55:31;;;;;;;2.93;1.93;;;13.60;58.40;;;;;;5057240;28;21008;-72
2021/04/03 12:57:57;;;;;;;3.20;1.90;;;13.10;58.40;;;;;;5049767;28;20531;-72
2021/04/03 13:00:24;;;;;;;7.60;2.30;;;12.50;59.90;;;;;;5049757;28;20559;-71
2021/04/03 13:02:51;;;;;;;4.07;2.27;;;12.00;61.00;;;;;;5052410;28;20531;-71